createdAt,value
2023-02-09T00:04:18.520Z,27.35
2023-02-09T00:09:21.381Z,24.25
2023-02-09T00:14:24.144Z,19.50
2023-02-09T00:19:28.746Z,22.27
2023-02-09T00:24:31.532Z,24.13
2023-02-09T00:29:34.278Z,25.13
2023-02-09T00:34:39.287Z,22.75
2023-02-09T00:39:42.129Z,21.35
2023-02-09T00:44:45.997Z,25.42
2023-02-09T00:49:50.089Z,22.38
2023-02-09T00:54:52.875Z,23.45
2023-02-09T00:59:55.666Z,31.75
2023-02-09T01:05:00.004Z,27.27
2023-02-09T01:10:03.421Z,27.58
2023-02-09T01:15:06.585Z,75.03
2023-02-09T01:20:13.415Z,26.85
2023-02-09T01:25:16.220Z,21.77
2023-02-09T01:30:19.035Z,29.58
2023-02-09T01:35:23.121Z,26.77
2023-02-09T01:40:25.874Z,27.38
2023-02-09T01:45:33.103Z,30.73
2023-02-09T01:50:40.417Z,22.25
2023-02-09T01:55:52.240Z,23.27
2023-02-09T02:00:55.129Z,22.90
2023-02-09T02:06:06.192Z,20.98
2023-02-09T02:11:09.785Z,26.20
2023-02-09T02:16:29.566Z,30.00
2023-02-09T02:22:20.100Z,24.60
2023-02-09T02:27:32.209Z,22.55
2023-02-09T02:32:53.694Z,22.85
2023-02-09T02:38:04.029Z,27.27
2023-02-09T02:43:19.165Z,19.98
2023-02-09T02:48:34.674Z,21.60
2023-02-09T02:53:41.753Z,25.70
2023-02-09T02:58:47.290Z,24.75
2023-02-09T03:03:53.088Z,22.50
2023-02-09T03:08:57.562Z,26.40
2023-02-09T03:14:15.327Z,25.15
2023-02-09T03:19:31.098Z,23.27
2023-02-09T03:24:39.010Z,22.35
2023-02-09T03:29:44.005Z,21.35
2023-02-09T03:34:48.985Z,22.05
2023-02-09T03:39:51.870Z,19.77
2023-02-09T03:44:54.631Z,24.70
2023-02-09T03:49:59.301Z,23.40
2023-02-09T03:55:03.185Z,22.30
2023-02-09T04:00:07.027Z,22.70
2023-02-09T04:05:16.024Z,23.30
2023-02-09T04:10:19.064Z,21.48
2023-02-09T04:15:21.835Z,23.65
2023-02-09T04:20:25.924Z,27.02
2023-02-09T04:25:28.730Z,20.88
2023-02-09T04:30:31.504Z,24.95
2023-02-09T04:35:35.619Z,23.27
2023-02-09T04:40:38.462Z,20.80
2023-02-09T04:45:42.341Z,24.88
2023-02-09T04:50:47.381Z,23.73
2023-02-09T04:55:52.445Z,23.05
2023-02-09T05:00:56.324Z,23.55
2023-02-09T05:06:02.714Z,26.48
2023-02-09T05:11:05.662Z,26.17
2023-02-09T05:16:10.320Z,26.23
2023-02-09T05:21:15.228Z,22.60
2023-02-09T05:26:18.803Z,22.85
2023-02-09T05:31:21.679Z,26.90
2023-02-09T05:36:25.828Z,26.00
2023-02-09T05:41:45.953Z,22.70
2023-02-09T05:46:48.613Z,25.00
2023-02-09T05:51:52.725Z,19.55
2023-02-09T05:56:55.439Z,23.40
2023-02-09T06:01:58.392Z,26.67
2023-02-09T06:07:02.457Z,28.25
2023-02-09T06:12:05.590Z,25.58
2023-02-09T06:17:08.334Z,28.10
2023-02-09T06:22:12.430Z,22.75
2023-02-09T06:27:15.187Z,28.10
2023-02-09T06:32:18.061Z,27.20
2023-02-09T06:37:22.218Z,23.02
2023-02-09T06:42:25.042Z,22.98
2023-02-09T06:47:28.080Z,24.70
2023-02-09T06:52:32.187Z,25.08
2023-02-09T06:57:35.382Z,23.73
2023-02-09T07:02:38.211Z,25.65
2023-02-09T07:07:42.740Z,27.27
2023-02-09T07:12:46.062Z,25.88
2023-02-09T07:17:48.800Z,28.38
2023-02-09T07:22:52.922Z,27.77
2023-02-09T07:27:55.731Z,27.77
2023-02-09T07:32:58.526Z,27.75
2023-02-09T07:38:02.687Z,29.95
2023-02-09T07:43:06.114Z,26.55
2023-02-09T07:48:11.022Z,21.92
2023-02-09T07:53:15.149Z,20.20
2023-02-09T07:58:19.927Z,22.42
2023-02-09T08:03:24.967Z,25.23
2023-02-09T08:08:29.238Z,21.75
2023-02-09T08:13:37.853Z,25.13
2023-02-09T08:18:44.070Z,38.80
2023-02-09T08:23:52.533Z,20.40
2023-02-09T08:28:55.873Z,22.02
2023-02-09T08:33:58.612Z,22.13
2023-02-09T08:39:03.168Z,22.92
2023-02-09T08:44:06.307Z,21.52
2023-02-09T08:49:09.072Z,26.10
2023-02-09T08:54:13.366Z,26.02
2023-02-09T08:59:17.851Z,29.63
2023-02-09T09:04:22.070Z,27.75
2023-02-09T09:09:26.577Z,24.65
2023-02-09T09:14:29.383Z,24.50
2023-02-09T09:19:32.116Z,21.17
2023-02-09T09:24:40.535Z,20.63
2023-02-09T09:29:43.361Z,25.55
2023-02-09T09:34:46.082Z,24.63
2023-02-09T09:39:50.813Z,21.30
2023-02-09T09:44:55.306Z,25.15
2023-02-09T09:49:58.118Z,22.23
2023-02-09T09:55:04.036Z,20.20
2023-02-09T10:00:18.157Z,20.25
2023-02-09T10:05:23.686Z,13.88
2023-02-09T10:10:38.866Z,22.25
2023-02-09T10:15:41.720Z,22.20
2023-02-09T10:20:47.935Z,22.88
2023-02-09T10:25:58.868Z,25.38
2023-02-09T10:31:04.389Z,18.02
2023-02-09T10:36:09.714Z,25.38
2023-02-09T10:41:15.787Z,28.55
2023-02-09T10:46:21.511Z,20.95
2023-02-09T10:51:29.086Z,21.10
2023-02-09T10:56:44.783Z,21.70
2023-02-09T11:01:55.371Z,18.75
2023-02-09T11:07:00.100Z,23.52
2023-02-09T11:12:04.417Z,22.02
2023-02-09T11:17:16.656Z,19.27
2023-02-09T11:22:28.836Z,17.02
2023-02-09T11:27:44.287Z,20.33
2023-02-09T11:32:52.632Z,24.30
2023-02-09T11:38:00.812Z,19.60
2023-02-09T11:43:15.760Z,19.50
2023-02-09T11:48:25.906Z,25.13
2023-02-09T11:53:35.817Z,21.13
2023-02-09T11:58:45.325Z,22.75
2023-02-09T12:04:04.202Z,20.52
2023-02-09T12:09:28.864Z,19.58
2023-02-09T12:14:49.064Z,20.20
2023-02-09T12:19:58.154Z,23.88
2023-02-09T12:25:19.478Z,23.33
2023-02-09T12:31:02.421Z,22.80
2023-02-09T12:36:25.110Z,22.75
2023-02-09T12:41:30.413Z,21.05
2023-02-09T12:46:53.473Z,22.85
2023-02-09T12:52:16.499Z,20.67
2023-02-09T12:57:52.552Z,21.38
2023-02-09T13:02:57.606Z,21.35
2023-02-09T13:08:07.355Z,20.95
2023-02-09T13:13:18.639Z,22.25
2023-02-09T13:18:32.530Z,24.75
2023-02-09T13:23:42.030Z,24.55
2023-02-09T13:28:44.847Z,25.88
2023-02-09T13:33:53.598Z,20.05
2023-02-09T13:38:56.376Z,19.77
2023-02-09T13:43:59.134Z,17.35
2023-02-09T13:49:13.945Z,18.65
2023-02-09T13:54:20.010Z,23.42
2023-02-09T13:59:23.433Z,19.50
2023-02-09T14:04:31.204Z,20.60
2023-02-09T14:09:44.579Z,21.00
2023-02-09T14:15:14.479Z,19.65
2023-02-09T14:20:24.522Z,20.73
2023-02-09T14:25:27.902Z,19.48
2023-02-09T14:30:36.250Z,20.33
2023-02-09T14:35:42.384Z,21.83
2023-02-09T14:40:45.234Z,19.85
2023-02-09T14:45:50.160Z,21.63
2023-02-09T14:50:56.771Z,21.50
2023-02-09T14:56:00.060Z,22.88
2023-02-09T15:07:54.422Z,20.33
2023-02-09T15:12:57.853Z,21.33
2023-02-09T15:18:01.270Z,19.75
2023-02-09T15:23:05.295Z,22.05
2023-02-09T15:28:13.676Z,18.00
2023-02-09T15:33:16.340Z,17.75
2023-02-09T15:38:21.029Z,23.58
2023-02-09T15:43:42.616Z,17.80
2023-02-09T15:48:45.389Z,18.92
2023-02-09T15:53:50.010Z,19.92
2023-02-09T15:58:53.300Z,19.13
2023-02-09T16:04:08.353Z,22.90
2023-02-09T16:09:21.542Z,22.77
2023-02-09T16:14:26.537Z,16.95
2023-02-09T16:19:29.301Z,23.00
2023-02-09T16:24:37.260Z,25.95
2023-02-09T16:29:41.209Z,23.35
2023-02-09T16:34:44.524Z,22.10
2023-02-09T16:39:48.947Z,24.60
2023-02-09T16:44:51.758Z,24.20
2023-02-09T16:50:00.387Z,24.40
2023-02-09T16:55:07.331Z,22.70
2023-02-09T17:00:11.880Z,23.80
2023-02-09T17:05:20.047Z,26.20
2023-02-09T17:10:28.396Z,24.55
2023-02-09T17:15:34.067Z,21.90
2023-02-09T17:20:41.116Z,24.10
2023-02-09T17:25:45.976Z,16.70
2023-02-09T17:30:50.142Z,24.25
2023-02-09T17:36:23.854Z,30.73
2023-02-09T17:41:20.057Z,23.13
2023-02-09T17:46:22.902Z,29.42
2023-02-09T17:51:31.890Z,23.08
2023-02-09T17:56:36.056Z,27.10
2023-02-09T18:01:41.459Z,30.15
2023-02-09T18:06:44.387Z,29.60
2023-02-09T18:12:01.951Z,22.58
2023-02-09T18:17:04.838Z,27.85
2023-02-09T18:22:07.919Z,23.90
2023-02-09T18:27:14.505Z,24.67
2023-02-09T18:32:18.245Z,20.33
2023-02-09T18:37:21.017Z,27.17
2023-02-09T18:42:25.172Z,26.67
2023-02-09T18:47:28.086Z,23.77
2023-02-09T18:52:30.978Z,28.33
2023-02-09T18:57:35.061Z,31.30
2023-02-09T19:02:37.820Z,28.00
2023-02-09T19:07:40.707Z,29.50
2023-02-09T19:12:45.322Z,19.90
2023-02-09T19:17:48.070Z,26.13
2023-02-09T19:22:51.641Z,23.23
2023-02-09T19:27:56.407Z,33.72
2023-02-09T19:33:00.050Z,26.55
2023-02-09T19:38:02.856Z,24.17
2023-02-09T19:43:07.236Z,26.42
2023-02-09T19:48:12.078Z,28.65
2023-02-09T19:53:15.550Z,29.73
2023-02-09T19:58:21.284Z,28.13
2023-02-09T20:03:24.833Z,22.40
2023-02-09T20:08:27.672Z,25.63
2023-02-09T20:13:34.202Z,21.58
2023-02-09T20:18:36.986Z,27.70
2023-02-09T20:23:39.798Z,31.35
2023-02-09T20:28:44.200Z,29.13
2023-02-09T20:33:47.149Z,35.72
2023-02-09T20:38:50.029Z,34.47
2023-02-09T20:44:11.607Z,27.20
2023-02-09T20:49:16.802Z,35.88
2023-02-09T20:54:19.583Z,28.70
2023-02-09T20:59:23.740Z,25.17
2023-02-09T21:04:30.126Z,20.85
2023-02-09T21:09:34.208Z,33.10
2023-02-09T21:14:41.990Z,28.52
2023-02-09T21:19:45.912Z,35.92
2023-02-09T21:24:48.694Z,46.17
2023-02-09T21:29:52.831Z,29.50
2023-02-09T21:34:55.604Z,33.45
2023-02-09T21:40:01.945Z,22.67
2023-02-09T21:45:08.018Z,33.45
2023-02-09T21:50:13.079Z,31.13
2023-02-09T21:55:16.960Z,32.35
2023-02-09T22:00:21.544Z,30.35
2023-02-09T22:05:25.010Z,33.05
2023-02-09T22:10:27.991Z,24.27
2023-02-09T22:15:32.153Z,44.47
2023-02-09T22:20:34.842Z,45.83
2023-02-09T22:25:37.665Z,42.17
2023-02-09T22:30:41.904Z,43.95
2023-02-09T22:35:44.818Z,32.80
2023-02-09T22:40:47.780Z,51.00
2023-02-09T22:45:57.019Z,50.88
2023-02-09T22:50:59.752Z,33.85
2023-02-09T22:56:03.195Z,46.60
2023-02-09T23:01:07.896Z,38.30
2023-02-09T23:06:13.810Z,45.80
2023-02-09T23:11:18.245Z,39.75
2023-02-09T23:16:24.508Z,45.20
2023-02-09T23:21:30.381Z,52.20
2023-02-09T23:26:33.245Z,49.70
2023-02-09T23:31:37.548Z,47.83
2023-02-09T23:36:40.340Z,52.53
2023-02-09T23:41:43.124Z,49.25
2023-02-09T23:46:47.291Z,46.20
2023-02-09T23:51:50.049Z,52.03
2023-02-09T23:56:53.619Z,41.65
